Time;durP1;ratioP1;P1;durP2;ratioP2;P2;SDS_P1;SDS_P2;PMS_P1;PMS_P2;Temp;Humidity;BMP_temperature;BMP_pressure;BME280_temperature;BME280_humidity;BME280_pressure;Samples;Min_cycle;Max_cycle;Signal;HPM_P1;HPM_P2
2023/04/01 00:02:27;;;;;;;9.40;1.80;;;;;;;8.18;88.41;98468.79;110075;1273;23593;-59
2023/04/01 00:04:58;;;;;;;5.10;1.20;;;;;;;8.21;88.50;98467.98;110131;1278;22148;-59
2023/04/01 00:07:29;;;;;;;6.50;1.30;;;;;;;8.24;88.65;98472.48;110076;1276;22935;-58
2023/04/01 00:09:59;;;;;;;6.20;1.20;;;;;;;8.24;88.45;98469.73;110076;1272;22167;-59
2023/04/01 00:12:30;;;;;;;6.20;1.30;;;;;;;8.25;88.47;98474.48;110071;1276;22319;-59
2023/04/01 00:15:02;;;;;;;7.40;1.40;;;;;;;8.25;88.54;98468.89;110060;1274;22200;-59
2023/04/01 00:17:33;;;;;;;9.40;1.40;;;;;;;8.26;88.44;98475.92;110041;1272;22513;-58
2023/04/01 00:20:04;;;;;;;10.50;1.70;;;;;;;8.27;88.68;98475.43;110050;1273;22172;-59
2023/04/01 00:22:36;;;;;;;6.90;1.60;;;;;;;8.28;88.76;98471.02;110003;1279;22323;-59
2023/04/01 00:25:08;;;;;;;5.70;1.50;;;;;;;8.28;88.91;98469.41;106089;1278;25416;-60
2023/04/01 00:27:39;;;;;;;9.40;2.00;;;;;;;8.27;88.94;98466.78;110071;1271;22987;-59
2023/04/01 00:30:11;;;;;;;11.00;2.20;;;;;;;8.26;89.10;98463.80;110047;1273;23185;-59
2023/04/01 00:32:42;;;;;;;7.20;1.90;;;;;;;8.27;89.40;98465.98;110056;1273;22507;-59
2023/04/01 00:35:13;;;;;;;8.70;2.50;;;;;;;8.28;89.48;98469.36;110075;1273;22329;-59
2023/04/01 00:37:44;;;;;;;8.40;1.90;;;;;;;8.29;89.55;98468.91;110039;1279;22272;-59
2023/04/01 00:40:27;;;;;;;8.30;2.40;;;;;;;8.32;89.61;98468.77;110060;1270;22342;-59
2023/04/01 00:42:59;;;;;;;11.50;2.60;;;;;;;8.33;89.60;98468.66;110021;1276;22225;-57
2023/04/01 00:45:37;;;;;;;10.70;2.80;;;;;;;8.35;89.71;98468.41;110053;1273;22742;-59
2023/04/01 00:48:11;;;;;;;12.70;3.30;;;;;;;8.36;89.73;98470.32;110060;1267;22210;-59
2023/04/01 00:50:45;;;;;;;11.70;3.50;;;;;;;8.37;89.69;98463.30;110037;1269;22171;-59
2023/04/01 00:53:17;;;;;;;14.30;3.80;;;;;;;8.39;89.77;98468.20;105895;1273;5416237;-59
2023/04/01 00:55:54;;;;;;;11.10;3.70;;;;;;;8.42;89.67;98465.88;110077;1279;22198;-59
2023/04/01 00:58:28;;;;;;;13.80;4.50;;;;;;;8.43;89.64;98469.61;110058;1269;22213;-59
2023/04/01 01:01:01;;;;;;;13.20;4.30;;;;;;;8.44;89.61;98468.44;110050;1273;22294;-61
2023/04/01 01:03:32;;;;;;;14.70;5.00;;;;;;;8.46;89.75;98468.90;110008;1274;22406;-60
2023/04/01 01:06:12;;;;;;;13.10;3.70;;;;;;;8.47;89.72;98468.59;110013;1273;22251;-60
2023/04/01 01:09:03;;;;;;;11.10;4.30;;;;;;;8.48;89.75;98465.97;110071;1270;22222;-59
2023/04/01 01:11:42;;;;;;;12.00;4.20;;;;;;;8.50;89.72;98467.08;110060;1263;23062;-59
2023/04/01 01:14:30;;;;;;;12.60;4.50;;;;;;;8.52;89.75;98464.74;110013;1273;23138;-59
2023/04/01 01:17:07;;;;;;;14.00;4.50;;;;;;;8.54;89.82;98464.73;110040;1279;23005;-59
2023/04/01 01:20:16;;;;;;;13.80;4.30;;;;;;;8.54;89.86;98464.08;110046;1273;22189;-60
2023/04/01 01:23:16;;;;;;;12.00;3.70;;;;;;;8.53;89.84;98462.27;110014;1279;22165;-60
2023/04/01 01:25:55;;;;;;;13.60;5.30;;;;;;;8.50;89.88;98466.41;110039;1279;23032;-59
2023/04/01 01:28:37;;;;;;;14.20;4.80;;;;;;;8.48;89.91;98466.57;110044;1273;22150;-59
2023/04/01 01:31:16;;;;;;;13.20;4.70;;;;;;;8.46;90.05;98467.83;110072;1273;22293;-59
2023/04/01 01:33:55;;;;;;;14.80;5.00;;;;;;;8.45;89.97;98465.96;110003;1267;22300;-59
2023/04/01 01:36:34;;;;;;;12.90;4.60;;;;;;;8.45;90.17;98466.27;110032;1273;22233;-58
2023/04/01 01:39:06;;;;;;;15.90;4.90;;;;;;;8.45;90.30;98465.06;110028;1274;22209;-60
2023/04/01 01:41:40;;;;;;;17.80;6.10;;;;;;;8.45;90.29;98464.29;110029;1273;22943;-59
2023/04/01 01:44:16;;;;;;;16.40;5.20;;;;;;;8.45;90.28;98465.16;110044;1264;22481;-59
2023/04/01 01:46:48;;;;;;;13.90;4.70;;;;;;;8.45;90.32;98464.65;110047;1276;22246;-58
2023/04/01 01:49:20;;;;;;;14.20;5.50;;;;;;;8.45;90.51;98462.27;110066;1276;23265;-58
2023/04/01 01:51:51;;;;;;;13.30;5.10;;;;;;;8.45;90.50;98460.05;110044;1264;22253;-58
2023/04/01 01:54:22;;;;;;;13.30;5.10;;;;;;;8.46;90.54;98460.66;110038;1273;22131;-58
2023/04/01 01:57:01;;;;;;;15.30;5.40;;;;;;;8.47;90.68;98457.86;110034;1273;22205;-58
2023/04/01 01:59:34;;;;;;;13.00;4.70;;;;;;;8.47;90.63;98459.99;110064;1273;22310;-59
2023/04/01 02:02:08;;;;;;;13.10;4.90;;;;;;;8.47;90.77;98461.01;110047;1273;22651;-59
2023/04/01 02:04:40;;;;;;;14.30;4.80;;;;;;;8.47;90.77;98454.38;110086;1279;22348;-60
2023/04/01 02:07:15;;;;;;;11.40;3.80;;;;;;;8.47;90.91;98459.28;110066;1273;22273;-59
2023/04/01 02:09:46;;;;;;;15.10;5.00;;;;;;;8.48;90.92;98454.80;110045;1264;22275;-60
2023/04/01 02:12:18;;;;;;;13.10;4.30;;;;;;;8.50;90.89;98453.83;110057;1279;22326;-59
2023/04/01 02:14:54;;;;;;;16.10;5.40;;;;;;;8.52;90.95;98454.13;110027;1265;22232;-59
2023/04/01 02:17:28;;;;;;;18.00;5.80;;;;;;;8.55;90.96;98452.35;110046;1264;22190;-58
2023/04/01 02:20:04;;;;;;;13.40;5.30;;;;;;;8.56;90.92;98444.57;109971;1279;22553;-59
2023/04/01 02:22:38;;;;;;;13.70;5.20;;;;;;;8.57;91.14;98443.70;110030;1273;22336;-62
2023/04/01 02:25:13;;;;;;;15.20;4.90;;;;;;;8.57;91.20;98441.77;110037;1270;22157;-59
2023/04/01 02:27:46;;;;;;;14.20;4.80;;;;;;;8.58;91.19;98441.52;110035;1268;23170;-59
2023/04/01 02:30:18;;;;;;;12.80;4.20;;;;;;;8.59;91.11;98441.52;110057;1264;22232;-59
2023/04/01 02:32:50;;;;;;;13.00;4.30;;;;;;;8.61;91.23;98435.55;110041;1275;22360;-59
2023/04/01 02:35:21;;;;;;;15.60;5.50;;;;;;;8.62;91.24;98438.19;110036;1273;22389;-59
2023/04/01 02:37:54;;;;;;;13.20;4.80;;;;;;;8.62;91.42;98442.03;110028;1279;23340;-59
2023/04/01 02:40:25;;;;;;;14.00;4.90;;;;;;;8.63;91.27;98442.88;110022;1267;22864;-59
2023/04/01 02:42:56;;;;;;;13.90;5.00;;;;;;;8.63;91.34;98440.77;110022;1264;22261;-58
2023/04/01 02:45:26;;;;;;;10.70;4.30;;;;;;;8.64;91.29;98442.08;110057;1267;22250;-59
2023/04/01 02:47:57;;;;;;;11.50;4.20;;;;;;;8.65;91.25;98443.73;110044;1264;23079;-59
2023/04/01 02:50:28;;;;;;;17.20;5.10;;;;;;;8.67;91.26;98445.61;107096;1276;25257;-58
2023/04/01 02:52:59;;;;;;;14.70;5.00;;;;;;;8.68;91.21;98446.15;105998;1279;24243;-58
2023/04/01 02:55:30;;;;;;;15.80;5.90;;;;;;;8.67;91.39;98447.37;105853;1279;25368;-59
2023/04/01 02:58:01;;;;;;;12.80;4.30;;;;;;;8.67;91.37;98446.77;106071;1279;23003;-59
2023/04/01 03:00:32;;;;;;;15.00;5.00;;;;;;;8.68;91.50;98448.59;110025;1267;22248;-60
2023/04/01 03:03:03;;;;;;;12.00;4.20;;;;;;;8.68;91.55;98450.76;110054;1267;22186;-60
2023/04/01 03:05:34;;;;;;;11.60;4.10;;;;;;;8.66;91.57;98449.15;110041;1273;22329;-60
2023/04/01 03:08:06;;;;;;;14.70;4.30;;;;;;;8.64;91.69;98451.02;110049;1264;23547;-60
2023/04/01 03:10:37;;;;;;;13.30;4.30;;;;;;;8.64;91.78;98454.37;110027;1279;22222;-60
2023/04/01 03:13:08;;;;;;;11.80;3.70;;;;;;;8.65;91.62;98456.08;110046;1273;22156;-59
2023/04/01 03:15:39;;;;;;;15.80;4.30;;;;;;;8.67;91.65;98458.45;110026;1274;22347;-60
2023/04/01 03:18:09;;;;;;;12.60;4.30;;;;;;;8.67;91.70;98457.64;110054;1273;22313;-61
2023/04/01 03:20:40;;;;;;;13.30;3.20;;;;;;;8.67;91.65;98460.88;110061;1269;22315;-59
2023/04/01 03:23:11;;;;;;;11.40;3.40;;;;;;;8.69;91.74;98459.95;110048;1272;22343;-59
2023/04/01 03:25:42;;;;;;;12.80;3.80;;;;;;;8.69;91.86;98462.45;110059;1273;22244;-59
2023/04/01 03:28:14;;;;;;;8.40;2.80;;;;;;;8.69;91.97;98467.77;110038;1273;23010;-60
2023/04/01 03:30:45;;;;;;;8.40;2.40;;;;;;;8.68;92.19;98465.29;110051;1273;22272;-60
2023/04/01 03:33:16;;;;;;;8.70;2.80;;;;;;;8.68;92.22;98465.27;110047;1267;22308;-60
2023/04/01 03:35:47;;;;;;;11.70;3.40;;;;;;;8.68;92.29;98464.52;110010;1264;22238;-59
2023/04/01 03:38:18;;;;;;;11.00;2.30;;;;;;;8.69;92.14;98467.20;110019;1273;22324;-60
2023/04/01 03:40:49;;;;;;;10.80;2.30;;;;;;;8.70;92.42;98463.95;110056;1279;22171;-59
2023/04/01 03:43:20;;;;;;;9.70;2.50;;;;;;;8.71;92.35;98468.11;110031;1273;23050;-59
2023/04/01 03:45:52;;;;;;;11.00;2.20;;;;;;;8.71;92.55;98467.40;110094;1273;22251;-60
2023/04/01 03:48:23;;;;;;;6.00;2.10;;;;;;;8.70;92.58;98466.95;110137;1264;22210;-59
2023/04/01 03:50:53;;;;;;;8.80;2.30;;;;;;;8.70;92.49;98471.50;110045;1273;22167;-63
2023/04/01 03:53:24;;;;;;;8.00;2.60;;;;;;;8.70;92.62;98471.04;110053;1263;22214;-59
2023/04/01 03:55:56;;;;;;;8.60;2.40;;;;;;;8.69;92.70;98472.05;110032;1279;22220;-60
2023/04/01 03:58:26;;;;;;;8.30;2.30;;;;;;;8.70;92.80;98472.15;110065;1260;22166;-59
2023/04/01 04:00:57;;;;;;;8.70;1.90;;;;;;;8.71;92.96;98474.83;110097;1264;22220;-58
2023/04/01 04:03:28;;;;;;;9.00;2.30;;;;;;;8.72;92.99;98476.91;110120;1273;22228;-61
2023/04/01 04:06:00;;;;;;;7.90;1.90;;;;;;;8.72;93.03;98479.69;110045;1273;22275;-59
2023/04/01 04:08:30;;;;;;;9.30;1.90;;;;;;;8.71;93.18;98474.98;110041;1267;22401;-59
2023/04/01 04:11:01;;;;;;;9.10;2.20;;;;;;;8.70;93.36;98481.00;110080;1267;22151;-58
2023/04/01 04:13:32;;;;;;;7.40;1.80;;;;;;;8.69;93.54;98486.37;110123;1264;22348;-59
2023/04/01 04:16:03;;;;;;;7.20;2.30;;;;;;;8.67;93.52;98487.27;108076;1274;24070;-58
2023/04/01 04:18:35;;;;;;;12.10;2.90;;;;;;;8.65;93.61;98488.70;105942;1278;22614;-59
2023/04/01 04:21:06;;;;;;;9.80;2.50;;;;;;;8.65;93.76;98488.10;110016;1266;22188;-60
2023/04/01 04:23:37;;;;;;;10.10;3.20;;;;;;;8.64;93.80;98489.62;110032;1271;22187;-60
2023/04/01 04:26:10;;;;;;;11.30;3.40;;;;;;;8.61;94.00;98493.86;109993;1271;22413;-60
2023/04/01 04:28:41;;;;;;;11.70;3.40;;;;;;;8.58;94.19;98490.47;110034;1279;22215;-60
2023/04/01 04:31:12;;;;;;;10.20;2.60;;;;;;;8.58;94.27;98491.67;109983;1264;23112;-61
2023/04/01 04:33:43;;;;;;;10.10;3.10;;;;;;;8.56;94.32;98493.97;110037;1264;23217;-61
2023/04/01 04:36:14;;;;;;;10.70;3.10;;;;;;;8.57;94.39;98495.42;110015;1264;22156;-61
2023/04/01 04:38:45;;;;;;;14.00;3.20;;;;;;;8.56;94.37;98494.02;110006;1271;22307;-61
2023/04/01 04:41:18;;;;;;;8.90;2.50;;;;;;;8.54;94.68;98496.09;110003;1264;22349;-62
2023/04/01 04:43:54;;;;;;;10.80;2.40;;;;;;;8.53;94.74;98494.06;110039;1273;22394;-62
2023/04/01 04:46:26;;;;;;;10.50;2.80;;;;;;;8.51;94.99;98494.02;110006;1269;22252;-62
2023/04/01 04:48:57;;;;;;;10.60;3.10;;;;;;;8.51;94.92;98491.75;110019;1273;22968;-62
2023/04/01 04:51:28;;;;;;;11.80;2.60;;;;;;;8.50;94.88;98492.10;110030;1272;23039;-62
2023/04/01 04:53:59;;;;;;;10.30;2.40;;;;;;;8.50;95.00;98487.36;110032;1268;22190;-62
2023/04/01 04:56:30;;;;;;;11.90;2.80;;;;;;;8.50;95.23;98489.73;110032;1269;22325;-61
2023/04/01 04:59:01;;;;;;;7.00;2.10;;;;;;;8.50;95.38;98493.07;110020;1279;22202;-60
2023/04/01 05:01:33;;;;;;;8.40;2.20;;;;;;;8.50;95.37;98494.84;110054;1279;22413;-60
2023/04/01 05:04:04;;;;;;;8.00;2.30;;;;;;;8.50;95.64;98493.67;110035;1274;22333;-60
2023/04/01 05:06:35;;;;;;;6.40;1.90;;;;;;;8.50;95.69;98498.98;110054;1263;22227;-60
2023/04/01 05:09:05;;;;;;;6.00;2.00;;;;;;;8.50;95.82;98501.52;109982;1272;23474;-59
2023/04/01 05:11:37;;;;;;;6.20;1.50;;;;;;;8.50;95.92;98499.39;110015;1264;23259;-60
2023/04/01 05:14:12;;;;;;;8.40;1.70;;;;;;;8.50;96.18;98505.45;110041;1271;22365;-61
2023/04/01 05:16:43;;;;;;;4.90;1.30;;;;;;;8.50;96.17;98504.29;110067;1273;22297;-60
2023/04/01 05:19:14;;;;;;;8.00;1.50;;;;;;;8.50;96.30;98504.04;110018;1273;22673;-60
2023/04/01 05:21:45;;;;;;;10.00;1.70;;;;;;;8.50;96.34;98501.96;110017;1272;22377;-61
2023/04/01 05:24:16;;;;;;;5.90;1.30;;;;;;;8.50;96.53;98502.92;110128;1265;22216;-62
2023/04/01 05:26:46;;;;;;;7.90;1.50;;;;;;;8.50;96.60;98505.05;110093;1273;22212;-61
2023/04/01 05:29:17;;;;;;;7.40;1.40;;;;;;;8.51;96.70;98503.58;110142;1264;22214;-61
2023/04/01 05:31:48;;;;;;;4.70;1.40;;;;;;;8.52;96.90;98502.17;110159;1264;22307;-61
2023/04/01 05:34:19;;;;;;;4.70;1.20;;;;;;;8.52;96.87;98502.58;110164;1273;22210;-60
2023/04/01 05:36:50;;;;;;;5.00;1.20;;;;;;;8.54;96.99;98504.79;110038;1274;22390;-61
2023/04/01 05:39:21;;;;;;;6.50;1.60;;;;;;;8.55;96.96;98507.02;110073;1273;22215;-60
2023/04/01 05:41:51;;;;;;;9.30;1.80;;;;;;;8.54;96.89;98502.87;110139;1267;22294;-60
2023/04/01 05:44:22;;;;;;;5.90;1.30;;;;;;;8.55;97.06;98505.80;110145;1264;22242;-61
2023/04/01 05:46:54;;;;;;;8.20;2.20;;;;;;;8.56;97.14;98508.08;110098;1264;23336;-61
2023/04/01 05:49:25;;;;;;;9.70;1.90;;;;;;;8.56;97.24;98507.42;110106;1267;23397;-61
2023/04/01 05:51:56;;;;;;;8.60;2.00;;;;;;;8.58;97.39;98507.22;110153;1267;22144;-60
2023/04/01 05:54:27;;;;;;;10.60;2.40;;;;;;;8.59;97.44;98507.26;110087;1264;22254;-61
2023/04/01 05:56:57;;;;;;;8.80;1.90;;;;;;;8.60;97.58;98510.49;110058;1264;22207;-60
2023/04/01 05:59:30;;;;;;;12.00;2.60;;;;;;;8.62;97.66;98508.83;110099;1264;22196;-59
2023/04/01 06:02:02;;;;;;;7.90;1.80;;;;;;;8.63;97.77;98511.30;110125;1276;22190;-60
2023/04/01 06:04:39;;;;;;;8.20;2.10;;;;;;;8.63;97.92;98516.77;110090;1278;22325;-63
2023/04/01 06:07:16;;;;;;;7.90;2.00;;;;;;;8.63;97.99;98516.01;110086;1267;22345;-61
2023/04/01 06:09:47;;;;;;;8.80;2.30;;;;;;;8.64;98.03;98516.52;110107;1271;22237;-60
2023/04/01 06:12:41;;;;;;;8.30;2.10;;;;;;;8.64;98.18;98516.11;110140;1267;22232;-60
2023/04/01 06:15:30;;;;;;;7.40;1.90;;;;;;;8.65;98.17;98521.88;109987;1271;22212;-61
2023/04/01 06:18:20;;;;;;;9.00;2.30;;;;;;;8.64;98.41;98523.90;110081;1274;22210;-60
2023/04/01 06:20:59;;;;;;;8.90;2.70;;;;;;;8.65;98.40;98528.76;109919;1272;22486;-59
2023/04/01 06:23:41;;;;;;;12.60;3.40;;;;;;;8.66;98.49;98528.35;110031;1264;22312;-60
2023/04/01 06:26:23;;;;;;;8.00;2.30;;;;;;;8.68;98.55;98530.63;110066;1264;22345;-59
2023/04/01 06:29:25;;;;;;;11.80;2.20;;;;;;;8.69;98.61;98530.22;107793;1278;22811;-59
2023/04/01 06:32:28;;;;;;;7.30;1.50;;;;;;;8.71;98.74;98531.64;110089;1278;22264;-63
2023/04/01 06:35:21;;;;;;;11.60;1.90;;;;;;;8.71;98.91;98534.06;109935;1274;22391;-60
2023/04/01 06:38:18;;;;;;;8.90;2.10;;;;;;;8.72;98.91;98532.85;109932;1267;22866;-63
2023/04/01 06:41:22;;;;;;;8.60;2.50;;;;;;;8.74;99.18;98538.21;109773;1274;23254;-59
2023/04/01 06:44:09;;;;;;;5.40;1.60;;;;;;;8.76;99.28;98540.48;109893;1280;23100;-61
2023/04/01 06:46:46;;;;;;;6.90;1.50;;;;;;;8.77;99.45;98542.24;109932;1273;22241;-60
2023/04/01 06:49:38;;;;;;;6.10;1.50;;;;;;;8.80;99.48;98541.89;109898;1280;22169;-60
2023/04/01 06:52:23;;;;;;;4.70;1.30;;;;;;;8.82;99.67;98542.74;109905;1280;23245;-57
2023/04/01 06:55:27;;;;;;;6.70;1.40;;;;;;;8.85;99.75;98542.60;109849;1269;22283;-59
2023/04/01 06:58:05;;;;;;;7.70;1.20;;;;;;;8.87;99.90;98542.49;109881;1267;22895;-57
2023/04/01 07:01:23;;;;;;;4.90;1.10;;;;;;;8.88;99.91;98544.15;109830;1274;22231;-59
2023/04/01 07:04:02;;;;;;;4.40;1.10;;;;;;;8.90;99.98;98545.41;109973;1273;22502;-58
2023/04/01 07:06:36;;;;;;;4.80;1.10;;;;;;;8.90;100.00;98544.66;109983;1270;22199;-61
2023/04/01 07:09:17;;;;;;;5.30;1.50;;;;;;;8.91;100.00;98545.82;107929;1273;22529;-62
2023/04/01 07:11:51;;;;;;;5.60;1.10;;;;;;;8.94;100.00;98546.77;108621;1270;22599;-60
2023/04/01 07:14:44;;;;;;;5.00;1.00;;;;;;;8.96;100.00;98548.19;110104;1264;22284;-64
2023/04/01 07:17:20;;;;;;;4.60;1.10;;;;;;;8.98;100.00;98549.30;110150;1271;22156;-60
2023/04/01 07:19:59;;;;;;;3.80;0.90;;;;;;;9.02;100.00;98546.77;110082;1277;23081;-59
2023/04/01 07:22:35;;;;;;;4.00;1.10;;;;;;;9.04;100.00;98547.77;110182;1271;23473;-60
2023/04/01 07:25:15;;;;;;;5.40;1.30;;;;;;;9.07;100.00;98552.02;106228;1263;23040;-57
2023/04/01 07:27:47;;;;;;;6.80;1.50;;;;;;;9.11;100.00;98549.23;110048;1271;22194;-58
2023/04/01 07:30:20;;;;;;;5.90;1.40;;;;;;;9.12;100.00;98553.77;110087;1270;22301;-55
2023/04/01 07:32:57;;;;;;;4.10;1.30;;;;;;;9.15;100.00;98550.83;106835;1264;25305;-64
2023/04/01 07:35:40;;;;;;;6.40;1.60;;;;;;;9.17;100.00;98554.41;106061;1264;22613;-64
2023/04/01 07:38:26;;;;;;;10.30;1.80;;;;;;;9.19;100.00;98554.92;106099;1271;22516;-64
2023/04/01 07:41:05;;;;;;;5.70;1.60;;;;;;;9.22;100.00;98556.14;110106;1274;22838;-64
2023/04/01 07:43:57;;;;;;;8.90;2.50;;;;;;;9.25;100.00;98557.75;110050;1277;23225;-65
2023/04/01 07:46:54;;;;;;;8.50;1.90;;;;;;;9.29;100.00;98561.08;110095;1267;22650;-65
2023/04/01 07:49:35;;;;;;;11.00;2.80;;;;;;;9.31;100.00;98565.37;110106;1274;22226;-64
2023/04/01 07:52:13;;;;;;;15.20;3.30;;;;;;;9.33;100.00;98564.55;110065;1273;22205;-65
2023/04/01 07:54:51;;;;;;;18.40;3.40;;;;;;;9.34;100.00;98560.96;110114;1274;22338;-65
2023/04/01 07:57:28;;;;;;;9.50;2.10;;;;;;;9.35;100.00;98562.83;109989;1270;23002;-65
2023/04/01 08:00:08;;;;;;;10.10;1.80;;;;;;;9.36;100.00;98564.09;110100;1271;22201;-64
2023/04/01 08:02:55;;;;;;;11.20;2.60;;;;;;;9.37;100.00;98568.48;110095;1264;22123;-64
2023/04/01 08:05:30;;;;;;;16.20;3.60;;;;;;;9.39;100.00;98573.40;106472;1264;25336;-64
2023/04/01 08:08:13;;;;;;;6.90;1.80;;;;;;;9.42;100.00;98574.14;110112;1278;22191;-64
2023/04/01 08:10:50;;;;;;;7.00;1.70;;;;;;;9.44;100.00;98578.20;110078;1278;22248;-64
2023/04/01 08:13:31;;;;;;;7.50;1.40;;;;;;;9.48;100.00;98579.80;110111;1273;22168;-63
2023/04/01 08:16:12;;;;;;;7.60;1.50;;;;;;;9.53;100.00;98584.85;110094;1274;22213;-64
2023/04/01 08:18:48;;;;;;;7.30;1.60;;;;;;;9.58;100.00;98585.24;110005;1273;22450;-64
2023/04/01 08:21:24;;;;;;;9.20;1.70;;;;;;;9.62;100.00;98587.05;110063;1272;22212;-64
2023/04/01 08:23:58;;;;;;;5.30;1.50;;;;;;;9.68;100.00;98584.19;108211;1264;25475;-65
2023/04/01 08:26:35;;;;;;;8.20;1.50;;;;;;;9.74;100.00;98588.16;105987;1271;23680;-64
2023/04/01 08:29:12;;;;;;;8.40;1.60;;;;;;;9.79;100.00;98585.10;105956;1263;25764;-64
2023/04/01 08:31:49;;;;;;;6.00;1.30;;;;;;;9.85;100.00;98593.28;110112;1267;23013;-62
2023/04/01 08:34:27;;;;;;;6.90;1.70;;;;;;;9.89;100.00;98590.47;110073;1264;22191;-63
2023/04/01 08:37:05;;;;;;;11.10;1.40;;;;;;;9.91;100.00;98587.77;110072;1274;22200;-62
2023/04/01 08:39:38;;;;;;;5.10;1.30;;;;;;;9.94;100.00;98590.41;110107;1273;22146;-61
2023/04/01 08:42:40;;;;;;;5.40;1.30;;;;;;;9.99;100.00;98589.83;109096;1267;25516;-62
2023/04/01 08:45:22;;;;;;;6.70;2.00;;;;;;;10.03;100.00;98587.63;110085;1266;22304;-63
2023/04/01 08:48:28;;;;;;;6.70;2.20;;;;;;;10.07;100.00;98588.57;110035;1276;22330;-63
2023/04/01 08:51:24;;;;;;;13.20;1.70;;;;;;;10.11;100.00;98589.71;109810;1274;22649;-63
2023/04/01 08:54:15;;;;;;;3.90;1.60;;;;;;;10.15;100.00;98593.36;109872;1277;22284;-62
2023/04/01 08:56:59;;;;;;;7.40;1.80;;;;;;;10.20;100.00;98588.92;109858;1274;22420;-66
2023/04/01 08:59:44;;;;;;;19.80;3.00;;;;;;;10.25;100.00;98590.67;109890;1267;22285;-63
2023/04/01 09:02:36;;;;;;;7.60;1.50;;;;;;;10.31;100.00;98593.08;109887;1267;22222;-64
2023/04/01 09:05:27;;;;;;;7.80;2.00;;;;;;;10.35;100.00;98596.34;109879;1267;22415;-68
2023/04/01 09:08:03;;;;;;;;;;;;;;;10.38;100.00;98596.92;109928;1267;22424;-68
2023/04/01 09:11:04;;;;;;;7.20;1.20;;;;;;;10.39;100.00;98596.77;109927;1281;22184;-68
2023/04/01 09:14:03;;;;;;;5.30;1.50;;;;;;;10.40;99.98;98601.89;109910;1281;22340;-62
2023/04/01 09:17:05;;;;;;;7.20;1.70;;;;;;;10.41;100.00;98602.17;109722;1277;22335;-60
2023/04/01 09:19:49;;;;;;;9.10;1.60;;;;;;;10.46;100.00;98604.77;109635;1282;22188;-60
2023/04/01 09:22:45;;;;;;;7.50;2.30;;;;;;;10.54;100.00;98610.98;109642;1270;22300;-61
2023/04/01 09:25:30;;;;;;;13.80;2.20;;;;;;;10.60;100.00;98607.69;109692;1273;22216;-60
2023/04/01 09:28:08;;;;;;;9.20;1.50;;;;;;;10.66;99.91;98609.36;109733;1280;22194;-60
2023/04/01 09:31:12;;;;;;;9.80;1.70;;;;;;;10.71;99.01;98605.87;109787;1277;22327;-60
2023/04/01 09:34:14;;;;;;;9.80;1.40;;;;;;;10.77;99.36;98609.16;109584;1271;22212;-60
2023/04/01 09:36:56;;;;;;;7.40;1.70;;;;;;;10.87;99.64;98614.52;109618;1270;22257;-60
2023/04/01 09:39:41;;;;;;;9.20;1.50;;;;;;;10.96;99.60;98613.28;109646;1278;22424;-61
2023/04/01 09:42:42;;;;;;;6.30;1.30;;;;;;;11.02;98.63;98613.17;109601;1280;22218;-61
2023/04/01 09:45:30;;;;;;;6.10;1.30;;;;;;;11.07;98.60;98620.73;109626;1280;22207;-60
2023/04/01 09:48:13;;;;;;;5.90;1.50;;;;;;;11.12;98.35;98615.58;109524;1280;23115;-61
2023/04/01 09:50:53;;;;;;;5.30;1.20;;;;;;;11.16;97.28;98620.52;109470;1282;22311;-61
2023/04/01 09:53:37;;;;;;;3.90;1.10;;;;;;;11.13;96.74;98625.20;109683;1273;22287;-61
2023/04/01 09:57:03;;;;;;;8.50;1.20;;;;;;;11.10;97.11;98628.64;109867;1274;22988;-62
2023/04/01 09:59:57;;;;;;;5.70;1.30;;;;;;;11.06;96.65;98627.31;109873;1270;22498;-62
2023/04/01 10:03:10;;;;;;;6.30;1.30;;;;;;;11.00;96.83;98628.98;109874;1274;23346;-61
2023/04/01 10:06:14;;;;;;;6.20;1.40;;;;;;;10.95;96.92;98628.92;109777;1268;22345;-62
2023/04/01 10:09:14;;;;;;;5.60;1.20;;;;;;;10.92;97.39;98631.94;109764;1279;22379;-63
2023/04/01 10:12:27;;;;;;;6.20;1.30;;;;;;;10.90;96.93;98638.70;110015;1268;22286;-61
2023/04/01 10:15:33;;;;;;;9.10;1.50;;;;;;;10.90;97.28;98641.31;109735;1271;22220;-62
2023/04/01 10:18:25;;;;;;;6.50;1.30;;;;;;;10.88;97.31;98636.64;109426;1283;22204;-62
2023/04/01 10:21:18;;;;;;;6.70;1.20;;;;;;;10.89;97.55;98634.09;109351;1283;23171;-63
2023/04/01 10:24:17;;;;;;;11.40;1.60;;;;;;;10.90;97.59;98640.69;109390;1282;23094;-62
2023/04/01 10:27:11;;;;;;;9.70;1.50;;;;;;;10.90;97.52;98642.83;109438;1276;22245;-62
2023/04/01 10:30:02;;;;;;;6.70;1.40;;;;;;;10.87;97.08;98641.53;109372;1279;22220;-62
2023/04/01 10:33:01;;;;;;;5.10;1.20;;;;;;;10.88;97.18;98648.48;109418;1283;22249;-63
2023/04/01 10:36:12;;;;;;;3.00;0.50;;;;;;;10.87;96.90;98648.79;109437;1282;22472;-62
2023/04/01 10:39:22;;;;;;;0.80;0.20;;;;;;;10.76;95.84;98649.44;105696;1288;22541;-61
2023/04/01 10:42:35;;;;;;;0.70;0.10;;;;;;;10.62;95.75;98657.54;108786;1284;22220;-62
2023/04/01 10:45:41;;;;;;;3.20;0.30;;;;;;;10.42;95.30;98667.25;108819;1292;22250;-63
2023/04/01 10:48:36;;;;;;;1.20;0.30;;;;;;;10.17;95.47;98674.22;108811;1280;22252;-63
2023/04/01 10:51:17;;;;;;;1.50;0.30;;;;;;;9.96;96.16;98668.80;108861;1281;22180;-63
2023/04/01 10:54:00;;;;;;;3.10;0.40;;;;;;;9.82;97.21;98666.42;109321;1283;23007;-62
2023/04/01 10:56:44;;;;;;;0.80;0.20;;;;;;;9.73;97.88;98668.98;109735;1277;23388;-64
2023/04/01 10:59:49;;;;;;;1.90;0.40;;;;;;;9.66;98.33;98666.83;109759;1277;23223;-62
2023/04/01 11:03:00;;;;;;;1.50;0.40;;;;;;;9.58;98.81;98666.99;109720;1276;23173;-65
2023/04/01 11:05:58;;;;;;;2.80;0.60;;;;;;;9.51;99.74;98666.55;109741;1279;22336;-62
2023/04/01 11:08:59;;;;;;;1.60;0.60;;;;;;;9.48;99.64;98666.96;109765;1270;22231;-62
2023/04/01 11:12:19;;;;;;;3.90;0.50;;;;;;;9.48;99.99;98666.16;109740;1276;22381;-62
2023/04/01 11:15:16;;;;;;;3.40;0.60;;;;;;;9.50;100.00;98666.55;109568;1276;22208;-63
2023/04/01 11:21:29;;;;;;;2.20;0.60;;;;;;;9.68;100.00;98669.13;102523;1319;545427;-60
2023/04/01 11:24:16;;;;;;;2.50;0.40;;;;;;;9.73;100.00;98672.42;105771;1278;22563;-60
2023/04/01 11:27:02;;;;;;;1.50;0.50;;;;;;;9.79;100.00;98677.44;109618;1281;22196;-60
2023/04/01 11:29:54;;;;;;;2.30;0.50;;;;;;;9.85;99.99;98678.37;109562;1283;22331;-60
2023/04/01 11:32:40;;;;;;;4.10;0.60;;;;;;;9.96;100.00;98680.52;109370;1271;22436;-59
2023/04/01 11:35:33;;;;;;;2.70;0.70;;;;;;;10.08;100.00;98677.07;105579;1270;5408624;-56
2023/04/01 11:38:15;;;;;;;2.70;0.70;;;;;;;10.21;100.00;98679.98;109707;1268;22898;-59
2023/04/01 11:40:55;;;;;;;2.50;0.70;;;;;;;10.34;100.00;98679.52;109728;1284;22378;-61
2023/04/01 11:43:34;;;;;;;1.90;0.70;;;;;;;10.45;100.00;98681.34;109723;1269;22216;-61
2023/04/01 11:46:12;;;;;;;3.40;0.80;;;;;;;10.53;100.00;98685.80;109697;1278;22252;-61
2023/04/01 11:48:59;;;;;;;2.90;0.70;;;;;;;10.60;100.00;98680.22;109762;1277;22425;-61
2023/04/01 11:51:48;;;;;;;1.20;0.30;;;;;;;10.66;100.00;98687.14;109698;1277;22203;-60
2023/04/01 11:54:34;;;;;;;2.50;0.70;;;;;;;10.66;99.04;98695.27;109771;1276;22379;-61
2023/04/01 11:57:24;;;;;;;3.30;0.60;;;;;;;10.65;98.83;98702.98;109673;1280;22423;-60
2023/04/01 12:00:11;;;;;;;1.70;0.40;;;;;;;10.58;98.53;98710.13;109796;1279;23222;-61
2023/04/01 12:02:55;;;;;;;1.20;0.40;;;;;;;10.48;98.26;98701.09;110072;1267;22355;-62
2023/04/01 12:05:40;;;;;;;2.60;0.30;;;;;;;10.39;97.43;98706.92;110080;1271;22182;-60
2023/04/01 12:08:22;;;;;;;3.70;0.40;;;;;;;10.31;98.37;98702.10;108077;1278;22523;-59
2023/04/01 12:11:02;;;;;;;2.80;0.50;;;;;;;10.28;98.70;98700.80;110065;1279;22203;-60
2023/04/01 12:13:44;;;;;;;1.50;0.40;;;;;;;10.26;98.90;98703.08;110076;1279;23136;-60
2023/04/01 12:16:31;;;;;;;1.50;0.40;;;;;;;10.24;98.72;98703.55;110097;1276;22207;-57
2023/04/01 12:19:14;;;;;;;3.10;0.60;;;;;;;10.21;98.49;98707.36;109453;1277;25553;-57
2023/04/01 12:21:53;;;;;;;3.60;0.50;;;;;;;10.19;98.80;98708.13;106141;1268;22536;-55
2023/04/01 12:24:52;;;;;;;1.60;0.40;;;;;;;10.19;99.19;98705.23;106182;1270;24244;-54
2023/04/01 12:27:52;;;;;;;2.30;0.60;;;;;;;10.22;99.75;98706.04;106109;1276;22727;-59
2023/04/01 12:30:36;;;;;;;2.80;0.70;;;;;;;10.28;99.98;98712.76;110074;1277;22290;-59
2023/04/01 12:33:26;;;;;;;4.70;0.80;;;;;;;10.35;100.00;98710.96;109967;1273;22182;-60